Aeroporto :
LOGIN :

Iscrizione | Disclaimer

   EN    FR    IT 

 










Sommario :    VFR   VFR Marginale   IFR   IFR Intensivo   IFR Molto Intensivo
Visibilità : 
Base nubi : 
>= 8 km
>= 3000ft
5 / 8 km
1000 / 3000 ft
1500m / 5 km
500 / 1000 ft
800 / 1500m
200 / 500 ft
< 800m
< 200 ft
Simboli :   Temporali  Nebbia  Neve Forte  Precipitazioni Forti  Vento > 20 kt
SIGMETs :   Varie  Temporali  Ghiacco  Turbolenza  Onda orograficha  Ceneri Vulcaniche






- Altitudine del aeroporto : 600 ft
- Codice IATA : VIE


LOWW - Vienna Schwechat

ULTIMO METAR :
  • 240820Z 30012KT 9999 -RA FEW018 BKN034 05/03 Q1007 NOSIG

METARs OBSOLETI :
  • 240750Z 30016KT 9999 -RA FEW015 SCT020 BKN036 05/02 Q1007 NOSIG
  • 240720Z 31014KT 9999 -RA FEW015 SCT020 BKN040 05/03 Q1007 NOSIG
  • 240650Z 31013KT 9999 -RA FEW015 SCT019 BKN030 05/03 Q1007 NOSIG
  • 240620Z 31014KT 9999 -RA FEW015 SCT020 BKN030 05/03 Q1007 NOSIG
  • 240550Z 31015KT 9999 -RA FEW017 BKN030 05/03 Q1007 NOSIG
  • 240520Z 31015KT 9999 -RA FEW032 SCT034 BKN036 05/03 Q1007 NOSIG
  • 240450Z 31015KT 9999 -RA FEW036 SCT040 BKN050 06/03 Q1007 NOSIG
  • 240420Z 31015KT 9999 -RA FEW034 SCT036 06/03 Q1007 NOSIG
  • 240350Z 30014KT 9999 -RA FEW034 06/03 Q1007 NOSIG
  • 240320Z 30014KT 9999 -RA FEW048 BKN050 06/03 Q1007 NOSIG

TAF TAF LOWW
Valido dal 24 a 09 ore il 25 a 15 ore UTC


240815Z 2409/2515 31010KT 9999 -RA SCT020 BKN030 TX11/2513Z TN05/2503Z
TEMPO 2409/2413 31015G25KT
BECMG 2410/2412 NSW
TEMPO 2412/2418 -RA



MetMap, La meteo Aeronautica in un colpo d'occhio ! - Copyright ORBIFLY Dicembre 2007 - Disclaimer

ORBIFLY MET'MAP TEAM :

Programmazione e sviluppo : Alexandra Zaïnal
Concezione : Baudouin d'Aumeries
Supporto tecnico e logistico : Manuel Goepfert
Aiuto : Marc-Olivier Méhu
Aiuto per la traduzione : Arnaldo La Scala




FONTI E CREDITI :

   NOAA